Vancouver Sea Island Ccg, British Columbia

12:42 AM PDT on April 28, 2015 (GMT -0700)
Vancouver International | | Change Station
CLOSE
Current Station
Airport
Location: Vancouver,
Elevation: 13 ft
Nearby Weather Stations

Elev 13 ft 49.18 °N, 123.17 °W | Updated 42 minutes ago

Scattered Clouds
Scattered Clouds
54 °F
Feels Like 54 °F
N
0
Wind Variable Wind from North

Today
High -- | Low -- °F
--% Chance of Precip.
Yesterday
High -- | Low -- °F
Precip. -- in
5:56 AM 8:24 PM
Waxing Gibbous, 71% visible
Pressure 29.89 in
Visibility 20.0 miles
Clouds Scattered Clouds 22000 ft
Dew Point 50 °F
Humidity 88%
Rainfall 0.00 in
Snow Depth Not available.
UV 0 out of 12
Pollen Not available.
Air Quality Not available.
Flu Activity Not available.
METAR CYVR 280700Z 00000KT 20SM SCT220 12/10 A2989 RMK CI3 SLP122

More Conditions Fewer Conditions

Pressure 29.89 in
Visibility 20.0 miles
Clouds Scattered Clouds 22000 ft
Dew Point 50 °F
Humidity 88%
Rainfall 0.00 in
Snow Depth Not available.
UV 0 out of 12
Pollen Not available.
Air Quality Not available.
Flu Activity Not available.
METAR CYVR 280700Z 00000KT 20SM SCT220 12/10 A2989 RMK CI3 SLP122

More Conditions Fewer Conditions

10-Day Weather Forecast

Almanac

Astronomy

Apr. 28, 2015 Rise Set
Actual Time
Civil Twilight
Nautical Twilight
Astronomical Twilight
Moon
Length of Visible Light
Length of Day
Tomorrow will be .
, % of the Moon is Illuminated

Today's Extremes

Country Highs Country Lows

Community

WunderPhotos

Upload Photos

1,817,596 photos uploaded!

WunderBlogs® & News

Nearby

Air Quality

  Air Quality AQ Index Pollutant
Not available.

Snow Depth

Station Depth Elevation

Earthquake Activity

City Distance Mag. Time & Date
Minimum magnitude displayed is 2.5.

Coastal Water Temperatures

Place Temperature

Stations

Nearby Weather Stations

Station Location Temp. Windchill Dew Point Humidity Wind Precip. Elev Updated Type